Time;durP1;ratioP1;P1;durP2;ratioP2;P2;SDS_P1;SDS_P2;PMS_P1;PMS_P2;Temp;Humidity;BMP_temperature;BMP_pressure;BME280_temperature;BME280_humidity;BME280_pressure;Samples;Min_cycle;Max_cycle;Signal;HPM_P1;HPM_P2
2021/09/25 00:01:16;;;;;;;3.30;2.05;;;;;;;18.54;100.00;100555.38;5045519;28;20070;-64
2021/09/25 00:03:41;;;;;;;5.85;2.15;;;;;;;18.53;100.00;100553.06;5051126;28;20028;-64
2021/09/25 00:06:07;;;;;;;4.50;2.33;;;;;;;18.41;100.00;100554.34;5062395;28;20103;-65
2021/09/25 00:08:32;;;;;;;5.22;2.22;;;;;;;18.42;100.00;100552.41;5052583;28;20032;-64
2021/09/25 00:10:58;;;;;;;5.05;2.17;;;;;;;18.41;100.00;100550.84;5052265;28;20036;-63
2021/09/25 00:13:24;;;;;;;5.40;2.08;;;;;;;18.46;100.00;100550.44;5049859;28;20401;-65
2021/09/25 00:15:49;;;;;;;3.80;1.70;;;;;;;18.52;100.00;100549.59;5047553;28;20091;-66
2021/09/25 00:18:15;;;;;;;3.92;1.98;;;;;;;18.45;100.00;100552.38;5067880;28;20039;-64
2021/09/25 00:20:41;;;;;;;3.83;2.10;;;;;;;18.49;100.00;100549.59;5051539;28;20658;-65
2021/09/25 00:23:07;;;;;;;5.40;2.28;;;;;;;18.47;100.00;100552.75;5052001;28;20032;-64
2021/09/25 00:25:33;;;;;;;3.95;1.70;;;;;;;18.52;100.00;100548.81;5042574;28;20036;-65
2021/09/25 00:27:58;;;;;;;5.40;2.38;;;;;;;18.54;100.00;100549.16;5041306;28;20492;-65
2021/09/25 00:30:24;;;;;;;3.03;1.90;;;;;;;18.52;100.00;100546.84;5047183;28;20041;-64
2021/09/25 00:32:51;;;;;;;3.05;2.20;;;;;;;18.52;100.00;100543.34;5042138;28;20037;-65
2021/09/25 00:35:17;;;;;;;6.65;2.10;;;;;;;18.51;100.00;100556.22;5049846;28;20041;-64
2021/09/25 00:37:43;;;;;;;5.75;2.35;;;;;;;18.51;100.00;100552.69;5055919;22;20049;-63
2021/09/25 00:40:11;;;;;;;4.93;2.17;;;;;;;18.50;100.00;100551.16;5034863;28;20045;-63
2021/09/25 00:42:36;;;;;;;5.63;2.22;;;;;;;18.46;100.00;100550.44;5026077;28;20400;-63
2021/09/25 00:45:03;;;;;;;4.85;2.30;;;;;;;18.49;100.00;100547.66;5030180;28;20034;-63
2021/09/25 00:47:29;;;;;;;5.82;2.15;;;;;;;18.47;100.00;100549.25;5030639;28;20374;-63
2021/09/25 00:49:55;;;;;;;6.30;2.20;;;;;;;18.49;100.00;100557.78;5031461;28;20083;-63
2021/09/25 00:52:20;;;;;;;6.22;2.60;;;;;;;18.47;100.00;100552.75;5029219;28;20037;-63
2021/09/25 00:54:46;;;;;;;5.35;2.45;;;;;;;18.41;100.00;100559.03;5022643;28;20041;-63
2021/09/25 00:57:11;;;;;;;3.85;1.88;;;;;;;18.46;100.00;100555.91;5031283;28;20080;-63
2021/09/25 00:59:38;;;;;;;4.78;2.13;;;;;;;18.47;100.00;100560.94;5030890;28;20039;-63
2021/09/25 01:02:03;;;;;;;4.10;2.13;;;;;;;18.42;100.00;100557.88;5022745;28;20044;-63
2021/09/25 01:04:29;;;;;;;4.65;2.03;;;;;;;18.44;100.00;100561.75;5031275;28;20013;-63
2021/09/25 01:06:54;;;;;;;4.43;2.22;;;;;;;18.44;100.00;100563.72;5029639;28;20045;-63
2021/09/25 01:09:20;;;;;;;3.63;2.13;;;;;;;18.47;100.00;100562.88;5028151;28;20040;-64
2021/09/25 01:11:48;;;;;;;3.53;2.10;;;;;;;18.43;100.00;100559.44;5028585;28;20052;-63
2021/09/25 01:14:13;;;;;;;4.32;2.30;;;;;;;18.39;100.00;100561.44;5030595;28;20445;-63
2021/09/25 01:16:39;;;;;;;4.10;1.90;;;;;;;18.42;100.00;100563.31;5026664;28;20044;-63
2021/09/25 01:19:05;;;;;;;3.60;1.95;;;;;;;18.45;100.00;100555.13;5027875;28;20498;-62
2021/09/25 01:21:30;;;;;;;3.67;1.95;;;;;;;18.45;100.00;100562.50;5030453;28;20541;-63
2021/09/25 01:23:56;;;;;;;5.10;2.13;;;;;;;18.39;100.00;100562.19;5030429;28;20104;-63
2021/09/25 01:26:24;;;;;;;4.03;2.03;;;;;;;18.39;100.00;100567.63;5025664;28;20121;-63
2021/09/25 01:28:50;;;;;;;3.50;1.98;;;;;;;18.40;100.00;100562.97;5030704;28;20727;-63
2021/09/25 01:31:16;;;;;;;4.18;1.95;;;;;;;18.39;100.00;100564.91;5030497;28;20069;-62
2021/09/25 01:33:44;;;;;;;4.50;2.08;;;;;;;18.40;100.00;100568.41;5029227;28;20045;-64
2021/09/25 01:36:11;;;;;;;4.43;2.10;;;;;;;18.40;100.00;100569.19;5026202;28;20718;-63
2021/09/25 01:38:38;;;;;;;6.18;1.98;;;;;;;18.40;100.00;100571.13;5029209;28;20029;-63
2021/09/25 01:41:04;;;;;;;4.57;1.83;;;;;;;18.38;100.00;100570.78;5028471;28;20394;-62
2021/09/25 01:43:30;;;;;;;5.93;1.73;;;;;;;18.34;100.00;100578.22;5028164;28;20029;-63
2021/09/25 01:45:57;;;;;;;3.95;2.00;;;;;;;18.37;100.00;100567.25;5029671;28;20041;-63
2021/09/25 01:48:23;;;;;;;4.43;2.20;;;;;;;18.33;100.00;100563.81;5030636;28;20385;-63
2021/09/25 01:50:50;;;;;;;4.50;2.20;;;;;;;18.29;100.00;100557.63;5026430;28;20025;-63
2021/09/25 01:53:16;;;;;;;4.38;2.22;;;;;;;18.32;100.00;100572.41;5030044;28;20056;-64
2021/09/25 01:55:42;;;;;;;8.25;2.38;;;;;;;18.30;100.00;100561.91;5026070;28;20037;-63
2021/09/25 01:58:07;;;;;;;3.10;1.73;;;;;;;18.25;100.00;100576.00;5026465;28;20028;-64
2021/09/25 02:00:34;;;;;;;5.22;2.17;;;;;;;18.25;100.00;100578.75;5026899;28;20039;-63
2021/09/25 02:03:05;;;;;;;5.75;2.50;;;;;;;18.24;100.00;100579.13;5028307;28;20106;-63
2021/09/25 02:05:31;;;;;;;;;;;;;;;18.13;100.00;100573.03;5030657;28;20029;-63
2021/09/25 02:07:56;;;;;;;4.18;2.22;;;;;;;18.19;100.00;100577.63;5024663;28;20275;-63
2021/09/25 02:10:22;;;;;;;6.45;2.53;;;;;;;18.19;100.00;100574.91;5028810;28;20493;-63
2021/09/25 02:12:48;;;;;;;3.95;2.22;;;;;;;18.20;100.00;100587.34;5022780;28;20037;-63
2021/09/25 02:15:13;;;;;;;3.53;1.92;;;;;;;18.17;100.00;100584.66;5030106;28;20041;-63
2021/09/25 02:17:39;;;;;;;3.53;2.33;;;;;;;18.16;100.00;100585.84;5030212;28;20382;-64
2021/09/25 02:20:08;;;;;;;3.45;1.98;;;;;;;18.10;100.00;100587.50;5023397;28;20032;-63
2021/09/25 02:22:34;;;;;;;6.43;2.08;;;;;;;18.10;100.00;100576.59;5021929;28;20110;-63
2021/09/25 02:25:00;;;;;;;5.13;2.45;;;;;;;18.12;100.00;100588.59;5030163;28;20029;-63
2021/09/25 02:27:25;;;;;;;5.55;2.80;;;;;;;18.09;100.00;100594.09;5025307;28;20179;-63
2021/09/25 02:29:51;;;;;;;5.75;2.70;;;;;;;18.08;100.00;100592.56;5020664;28;20026;-63
2021/09/25 02:32:16;;;;;;;5.20;2.42;;;;;;;18.03;100.00;100589.13;5022017;28;20515;-63
2021/09/25 02:34:42;;;;;;;6.88;2.67;;;;;;;18.07;100.00;100593.75;5029588;28;20029;-63
2021/09/25 02:37:07;;;;;;;7.22;2.78;;;;;;;18.05;100.00;100588.69;5028190;28;20136;-63
2021/09/25 02:39:35;;;;;;;6.43;2.63;;;;;;;18.05;100.00;100591.44;5031892;28;20029;-63
2021/09/25 02:42:00;;;;;;;5.00;2.50;;;;;;;17.99;100.00;100593.81;5031713;28;20079;-63
2021/09/25 02:44:27;;;;;;;10.25;2.67;;;;;;;18.02;100.00;100593.00;5029946;28;20425;-62
2021/09/25 02:46:53;;;;;;;6.65;2.67;;;;;;;18.00;100.00;100589.91;5025033;28;20041;-64
2021/09/25 02:49:20;;;;;;;5.40;2.80;;;;;;;18.03;100.00;100591.06;5032057;28;20056;-62
2021/09/25 02:51:47;;;;;;;5.00;2.60;;;;;;;18.04;100.00;100589.88;5031887;28;20643;-63
2021/09/25 02:54:12;;;;;;;4.82;2.95;;;;;;;18.07;100.00;100593.75;5027567;28;20037;-63
2021/09/25 02:56:38;;;;;;;4.90;2.60;;;;;;;18.04;100.00;100590.66;5032022;28;20029;-63
2021/09/25 02:59:04;;;;;;;7.30;3.00;;;;;;;18.03;100.00;100582.88;5029613;28;20033;-63
2021/09/25 03:01:30;;;;;;;10.55;2.92;;;;;;;18.05;100.00;100591.44;5030069;28;20068;-63
2021/09/25 03:03:56;;;;;;;6.53;3.10;;;;;;;17.97;100.00;100589.97;5031907;28;20428;-63
2021/09/25 03:06:23;;;;;;;5.18;2.63;;;;;;;18.01;100.00;100596.91;5031987;28;20075;-62
2021/09/25 03:08:48;;;;;;;5.28;2.50;;;;;;;18.02;100.00;100593.00;5021152;28;20091;-64
2021/09/25 03:11:14;;;;;;;7.28;3.35;;;;;;;17.99;100.00;100602.00;5027172;28;20437;-63
2021/09/25 03:13:39;;;;;;;7.68;3.00;;;;;;;18.00;100.00;100597.34;5030241;28;20037;-63
2021/09/25 03:16:05;;;;;;;5.43;2.67;;;;;;;17.98;100.00;100599.69;5029918;28;20018;-63
2021/09/25 03:18:30;;;;;;;8.55;4.43;;;;;;;17.95;100.00;100598.53;5032179;28;20041;-63
2021/09/25 03:20:56;;;;;;;7.63;3.30;;;;;;;17.93;100.00;100598.16;5027228;28;20072;-63
2021/09/25 03:23:21;;;;;;;7.63;3.10;;;;;;;17.92;100.00;100599.34;5031414;28;20497;-62
2021/09/25 03:25:47;;;;;;;13.52;3.90;;;;;;;17.96;100.00;100596.59;5031182;28;20037;-63
2021/09/25 03:28:12;;;;;;;8.15;3.72;;;;;;;17.92;100.00;100591.16;5023038;28;20048;-63
2021/09/25 03:30:38;;;;;;;12.13;3.60;;;;;;;17.92;100.00;100593.88;5031372;28;20056;-63
2021/09/25 03:33:03;;;;;;;9.73;3.83;;;;;;;17.92;100.00;100593.88;5031144;28;20110;-63
2021/09/25 03:35:29;;;;;;;10.15;3.50;;;;;;;17.96;100.00;100608.25;5030909;28;20048;-63
2021/09/25 03:37:55;;;;;;;8.52;3.60;;;;;;;17.95;100.00;100609.44;4994261;28;1095444;-63
2021/09/25 03:40:21;;;;;;;8.07;3.75;;;;;;;17.94;100.00;100602.44;5032100;28;20029;-63
2021/09/25 03:42:47;;;;;;;8.07;3.97;;;;;;;17.92;100.00;100602.06;5030244;28;20037;-63
2021/09/25 03:45:13;;;;;;;12.35;4.45;;;;;;;17.93;100.00;100603.63;5029120;28;20029;-63
2021/09/25 03:47:39;;;;;;;9.68;3.83;;;;;;;17.96;100.00;100604.78;5032776;28;20076;-62
2021/09/25 03:50:05;;;;;;;9.73;4.05;;;;;;;17.92;100.00;100607.50;5032795;28;20092;-63
2021/09/25 03:52:30;;;;;;;10.93;4.30;;;;;;;17.92;100.00;100609.47;5027437;28;20042;-63
2021/09/25 03:54:56;;;;;;;9.25;4.55;;;;;;;17.93;100.00;100609.06;5031988;28;20078;-63
2021/09/25 03:57:21;;;;;;;8.43;4.43;;;;;;;17.97;100.00;100612.53;5032078;28;20093;-63
2021/09/25 03:59:47;;;;;;;9.90;4.63;;;;;;;17.98;100.00;100616.03;5028702;28;20174;-63
2021/09/25 04:02:13;;;;;;;12.63;4.70;;;;;;;18.01;100.00;100612.50;5029964;28;20048;-63
2021/09/25 04:04:38;;;;;;;11.50;5.50;;;;;;;17.98;100.00;100616.03;5032658;28;20042;-63
2021/09/25 04:07:04;;;;;;;12.52;5.85;;;;;;;17.96;100.00;100621.88;5027520;28;20018;-63
2021/09/25 04:09:29;;;;;;;11.38;5.43;;;;;;;17.94;100.00;100610.59;5027043;28;20045;-63
2021/09/25 04:11:55;;;;;;;13.02;5.75;;;;;;;17.97;100.00;100615.25;5031892;28;20045;-62
2021/09/25 04:14:21;;;;;;;11.80;5.78;;;;;;;17.95;100.00;100605.94;5032255;28;20502;-61
2021/09/25 04:16:47;;;;;;;14.10;6.38;;;;;;;17.96;100.00;100604.78;5027930;28;20035;-63
2021/09/25 04:19:12;;;;;;;10.30;5.85;;;;;;;17.98;100.00;100602.41;5032161;28;20539;-63
2021/09/25 04:21:38;;;;;;;12.82;5.97;;;;;;;17.96;100.00;100608.25;5031285;28;20045;-62
2021/09/25 04:24:04;;;;;;;13.15;5.35;;;;;;;17.97;100.00;100607.09;5026977;28;20044;-63
2021/09/25 04:26:30;;;;;;;12.13;5.80;;;;;;;17.95;100.00;100609.44;5021432;28;20378;-63
2021/09/25 04:28:57;;;;;;;11.85;6.05;;;;;;;17.99;100.00;100607.47;5032257;28;20052;-63
2021/09/25 04:31:23;;;;;;;17.05;5.85;;;;;;;17.87;100.00;100613.41;5027825;28;20080;-63
2021/09/25 04:33:49;;;;;;;13.05;5.90;;;;;;;17.89;100.00;100602.88;5031449;28;20087;-62
2021/09/25 04:36:14;;;;;;;14.68;6.75;;;;;;;17.93;100.00;100603.63;5031225;28;20042;-62
2021/09/25 04:38:40;;;;;;;13.07;5.43;;;;;;;17.84;100.00;100606.06;5028513;28;20025;-62
2021/09/25 04:41:05;;;;;;;12.05;5.72;;;;;;;17.94;100.00;100607.13;5028666;28;20069;-63
2021/09/25 04:43:31;;;;;;;12.32;5.72;;;;;;;17.93;100.00;100614.53;5031749;28;20063;-62
2021/09/25 04:45:56;;;;;;;11.45;5.78;;;;;;;17.90;100.00;100609.88;5029926;28;20045;-63
2021/09/25 04:48:22;;;;;;;12.98;5.82;;;;;;;17.96;100.00;100616.44;5025513;28;20064;-62
2021/09/25 04:50:47;;;;;;;11.48;5.75;;;;;;;17.94;100.00;100618.03;5025660;28;20041;-62
2021/09/25 04:53:14;;;;;;;13.93;6.20;;;;;;;17.94;100.00;100621.50;5030358;28;20026;-63
2021/09/25 04:55:44;;;;;;;12.05;5.75;;;;;;;17.90;100.00;100620.03;5026840;28;20445;-62
2021/09/25 04:58:10;;;;;;;12.23;5.50;;;;;;;17.92;100.00;100621.13;5030401;28;20135;-62
2021/09/25 05:00:36;;;;;;;11.57;5.45;;;;;;;17.96;100.00;100627.31;5022276;28;20037;-63
2021/09/25 05:03:02;;;;;;;12.65;5.95;;;;;;;17.97;100.00;100625.38;5027036;28;20049;-63
2021/09/25 05:05:27;;;;;;;14.65;6.80;;;;;;;17.96;100.00;100634.75;5031057;28;20080;-62
2021/09/25 05:07:53;;;;;;;15.55;6.70;;;;;;;17.94;100.00;100634.38;5029813;28;20112;-63
2021/09/25 05:10:19;;;;;;;13.80;6.03;;;;;;;17.90;100.00;100639.84;5026924;28;20037;-62
2021/09/25 05:12:45;;;;;;;13.63;6.43;;;;;;;17.89;100.00;100634.81;5029819;28;20115;-61
2021/09/25 05:15:11;;;;;;;19.27;7.80;;;;;;;17.92;100.00;100637.50;5030506;28;20106;-63
2021/09/25 05:17:37;;;;;;;16.25;7.00;;;;;;;17.95;100.00;100641.38;5028278;28;20061;-62
2021/09/25 05:20:04;;;;;;;15.95;7.03;;;;;;;17.94;100.00;100640.59;5029700;28;20065;-61
2021/09/25 05:22:29;;;;;;;19.38;7.13;;;;;;;17.99;100.00;100645.63;5029678;28;20087;-63
2021/09/25 05:24:55;;;;;;;16.27;6.97;;;;;;;17.97;100.00;100645.25;5030174;28;20433;-63
2021/09/25 05:27:20;;;;;;;15.50;7.15;;;;;;;17.94;100.00;100639.84;5019747;28;20497;-63
2021/09/25 05:29:46;;;;;;;17.63;7.60;;;;;;;17.97;100.00;100650.69;5024663;28;20045;-62
2021/09/25 05:32:11;;;;;;;17.63;7.57;;;;;;;17.86;100.00;100646.53;5030090;28;20045;-62
2021/09/25 05:34:37;;;;;;;17.30;7.50;;;;;;;17.90;100.00;100648.03;5030787;28;20099;-62
2021/09/25 05:37:04;;;;;;;17.25;8.00;;;;;;;17.95;100.00;100653.06;5027348;28;20112;-62
2021/09/25 05:39:30;;;;;;;18.52;7.82;;;;;;;17.99;100.00;100647.56;5042237;28;20483;-62
2021/09/25 05:41:56;;;;;;;19.73;7.60;;;;;;;18.00;100.00;100657.28;5024955;28;20120;-62
2021/09/25 05:44:21;;;;;;;23.67;8.55;;;;;;;18.01;100.00;100651.44;5026643;28;20049;-63
2021/09/25 05:46:47;;;;;;;21.58;8.50;;;;;;;17.98;100.00;100657.69;5028514;28;20037;-62
2021/09/25 05:49:12;;;;;;;21.80;8.75;;;;;;;17.98;100.00;100663.13;5030761;28;20037;-61
2021/09/25 05:51:38;;;;;;;24.30;8.55;;;;;;;18.01;100.00;100670.50;5024869;28;20021;-62
2021/09/25 05:54:03;;;;;;;20.83;8.02;;;;;;;17.96;100.00;100676.38;5030361;28;20406;-62
2021/09/25 05:56:28;;;;;;;21.45;7.85;;;;;;;17.98;100.00;100667.81;5030276;28;20060;-64
2021/09/25 05:58:54;;;;;;;22.73;8.20;;;;;;;18.06;100.00;100672.00;5024699;28;20053;-63
2021/09/25 06:01:19;;;;;;;17.67;7.60;;;;;;;18.01;100.00;100673.25;5028463;28;20029;-62
2021/09/25 06:03:45;;;;;;;23.10;8.23;;;;;;;18.01;100.00;100669.72;5027990;28;20046;-63
2021/09/25 06:06:10;;;;;;;21.38;8.40;;;;;;;17.98;100.00;100663.13;5029090;28;20518;-62
2021/09/25 06:08:36;;;;;;;23.42;8.02;;;;;;;17.97;100.00;100666.25;5030229;28;20029;-62
2021/09/25 06:11:01;;;;;;;19.85;7.93;;;;;;;18.00;100.00;100663.50;5029077;28;20041;-62
2021/09/25 06:13:27;;;;;;;18.80;7.07;;;;;;;18.02;100.00;100674.78;5024651;28;20079;-62
2021/09/25 06:15:52;;;;;;;17.40;7.53;;;;;;;18.12;100.00;100675.09;5029426;28;20573;-62
2021/09/25 06:18:17;;;;;;;18.40;7.97;;;;;;;18.13;100.00;100687.53;5030454;28;20036;-62
2021/09/25 06:20:43;;;;;;;22.55;7.97;;;;;;;18.02;100.00;100685.69;5028729;28;20599;-64
2021/09/25 06:23:09;;;;;;;21.52;8.07;;;;;;;18.03;100.00;100689.19;5024667;28;20022;-63
2021/09/25 06:25:35;;;;;;;15.55;7.38;;;;;;;18.07;100.00;100689.16;5029385;28;20071;-63
2021/09/25 06:28:01;;;;;;;19.08;8.05;;;;;;;18.08;100.00;100693.44;5029838;28;20043;-63
2021/09/25 06:30:26;;;;;;;22.55;8.32;;;;;;;18.10;100.00;100696.53;5027269;28;20029;-63
2021/09/25 06:32:52;;;;;;;22.30;7.43;;;;;;;18.12;100.00;100699.63;5028193;28;20029;-62
2021/09/25 06:35:19;;;;;;;17.83;7.57;;;;;;;18.12;100.00;100691.44;5027043;28;20049;-63
2021/09/25 06:37:45;;;;;;;20.40;7.57;;;;;;;18.13;100.00;100688.31;5038841;22;20057;-65
2021/09/25 06:40:11;;;;;;;24.30;9.38;;;;;;;18.08;100.00;100693.44;5027477;28;20045;-64
2021/09/25 06:42:38;;;;;;;18.25;7.13;;;;;;;18.10;100.00;100691.81;5015411;28;20152;-65
2021/09/25 06:45:04;;;;;;;19.23;7.13;;;;;;;18.14;100.00;100692.56;5020444;28;20111;-65
2021/09/25 06:47:30;;;;;;;23.17;8.30;;;;;;;18.20;100.00;100695.63;5024044;28;20220;-65
2021/09/25 06:49:55;;;;;;;20.98;7.38;;;;;;;18.21;100.00;100697.19;5030135;28;20112;-65
2021/09/25 06:52:21;;;;;;;23.50;7.93;;;;;;;18.21;100.00;100703.44;5026299;28;20128;-65
2021/09/25 06:54:46;;;;;;;20.50;7.68;;;;;;;18.30;100.00;100722.03;5028143;28;20045;-65
2021/09/25 06:57:12;;;;;;;16.48;7.53;;;;;;;18.28;100.00;100725.16;5029447;28;20544;-65
2021/09/25 06:59:38;;;;;;;20.85;7.13;;;;;;;18.23;100.00;100720.16;5028982;28;20089;-65
2021/09/25 07:02:04;;;;;;;19.58;7.90;;;;;;;18.23;100.00;100722.88;5021003;28;20041;-65
2021/09/25 07:04:30;;;;;;;20.33;8.13;;;;;;;18.27;100.00;100725.56;5043673;28;20560;-65
2021/09/25 07:06:55;;;;;;;19.02;7.45;;;;;;;18.25;100.00;100728.69;5020165;28;20065;-65
2021/09/25 07:09:21;;;;;;;22.98;8.88;;;;;;;18.31;100.00;100729.03;5027360;28;20022;-65
2021/09/25 07:11:46;;;;;;;23.77;8.85;;;;;;;18.23;100.00;100733.00;5025931;28;20120;-65
2021/09/25 07:14:12;;;;;;;22.77;8.02;;;;;;;18.29;100.00;100734.13;5026107;28;20485;-65
2021/09/25 07:16:37;;;;;;;19.00;7.35;;;;;;;18.32;100.00;100734.06;5025264;28;20079;-66
2021/09/25 07:19:06;;;;;;;19.25;7.97;;;;;;;18.32;100.00;100745.00;5031926;28;20385;-65
2021/09/25 07:21:33;;;;;;;19.75;7.40;;;;;;;18.34;100.00;100744.56;5032680;28;20112;-66
2021/09/25 07:23:58;;;;;;;22.85;7.68;;;;;;;18.24;100.00;100731.81;5026398;28;20104;-66
2021/09/25 07:26:23;;;;;;;21.00;7.32;;;;;;;18.32;100.00;100736.03;5032046;28;20432;-66
2021/09/25 07:28:49;;;;;;;17.60;7.15;;;;;;;18.37;100.00;100738.31;5031822;28;20037;-66
2021/09/25 07:31:15;;;;;;;23.65;8.10;;;;;;;18.32;100.00;100725.91;5018118;28;20045;-65
2021/09/25 07:33:40;;;;;;;19.88;7.45;;;;;;;18.39;100.00;100738.69;5014890;28;20029;-65
2021/09/25 07:36:06;;;;;;;16.55;7.10;;;;;;;18.42;100.00;100735.16;5015704;28;20034;-65
2021/09/25 07:38:31;;;;;;;14.73;6.90;;;;;;;18.44;100.00;100738.28;5027888;28;20555;-65
2021/09/25 07:40:57;;;;;;;16.27;7.18;;;;;;;18.42;100.00;100752.31;5023618;28;20037;-65
2021/09/25 07:43:24;;;;;;;17.92;7.50;;;;;;;18.49;100.00;100760.44;5025719;28;20517;-66
2021/09/25 07:45:50;;;;;;;15.40;7.10;;;;;;;18.48;100.00;100760.84;5028029;28;20041;-65
2021/09/25 07:48:15;;;;;;;17.58;7.22;;;;;;;18.50;100.00;100769.38;5024544;28;20029;-65
2021/09/25 07:50:41;;;;;;;15.10;6.95;;;;;;;18.50;100.00;100761.22;5018212;28;20486;-66
2021/09/25 07:53:06;;;;;;;13.77;6.30;;;;;;;18.53;100.00;100769.34;5015994;28;20494;-66
2021/09/25 07:55:34;;;;;;;11.38;6.60;;;;;;;18.53;100.00;100772.06;5013413;28;20143;-65
2021/09/25 07:58:00;;;;;;;13.15;5.63;;;;;;;18.61;100.00;100770.03;5016017;28;20084;-66
2021/09/25 08:00:26;;;;;;;13.52;5.93;;;;;;;18.63;100.00;100782.09;5026864;28;20115;-66
2021/09/25 08:02:52;;;;;;;13.07;6.28;;;;;;;18.60;100.00;100782.16;5028086;28;20084;-66
2021/09/25 08:05:18;;;;;;;16.30;6.53;;;;;;;18.63;100.00;100784.06;5032356;28;20499;-66
2021/09/25 08:07:44;;;;;;;13.95;6.72;;;;;;;18.62;100.00;100777.81;5016551;28;20025;-66
2021/09/25 08:10:10;;;;;;;13.27;6.30;;;;;;;18.65;100.00;100782.47;5021963;28;20544;-65
2021/09/25 08:12:36;;;;;;;17.83;6.28;;;;;;;18.67;100.00;100784.78;5014013;28;20504;-66
2021/09/25 08:15:02;;;;;;;16.73;6.63;;;;;;;18.68;100.00;100789.84;5009335;28;20033;-66
2021/09/25 08:17:28;;;;;;;12.57;5.90;;;;;;;18.72;100.00;100778.88;5022438;28;20405;-66
2021/09/25 08:19:54;;;;;;;17.25;6.30;;;;;;;18.82;100.00;100799.81;5016266;28;20041;-65
2021/09/25 08:22:19;;;;;;;18.52;6.20;;;;;;;18.82;100.00;100795.16;5014946;28;20036;-65
2021/09/25 08:24:45;;;;;;;14.45;6.45;;;;;;;18.86;100.00;100792.38;5015313;28;20073;-65
2021/09/25 08:27:11;;;;;;;14.73;6.00;;;;;;;18.94;100.00;100802.03;5015129;28;20042;-66
2021/09/25 08:29:37;;;;;;;15.35;6.55;;;;;;;19.01;100.00;100798.47;5012223;28;20045;-66
2021/09/25 08:32:04;;;;;;;12.43;6.28;;;;;;;19.01;100.00;100807.41;5023374;28;20528;-65
2021/09/25 08:34:29;;;;;;;16.23;6.35;;;;;;;19.07;100.00;100819.44;5026503;28;20764;-66
2021/09/25 08:36:55;;;;;;;13.80;6.80;;;;;;;19.02;100.00;100819.91;5031892;28;20044;-66
2021/09/25 08:39:20;;;;;;;15.50;6.32;;;;;;;19.01;100.00;100823.78;5025654;28;20410;-66
2021/09/25 08:41:47;;;;;;;15.60;6.10;;;;;;;18.99;100.00;100823.41;5030167;28;20107;-66
2021/09/25 08:44:12;;;;;;;13.30;5.95;;;;;;;19.00;100.00;100824.19;5030995;28;20044;-66
2021/09/25 08:46:38;;;;;;;12.10;5.68;;;;;;;19.03;100.00;100829.63;5029933;28;20481;-66
2021/09/25 08:49:05;;;;;;;15.93;6.40;;;;;;;19.08;100.00;100831.91;5027854;28;20025;-66
2021/09/25 08:51:31;;;;;;;14.70;6.85;;;;;;;19.11;100.00;100836.53;5029931;28;20052;-66
2021/09/25 08:53:56;;;;;;;14.43;5.45;;;;;;;19.12;100.00;100842.78;5031986;28;20040;-66
2021/09/25 08:56:22;;;;;;;13.65;5.95;;;;;;;19.24;100.00;100834.81;5029515;28;20029;-66
2021/09/25 08:58:48;;;;;;;14.13;6.13;;;;;;;19.30;100.00;100837.91;5027437;28;20541;-66
2021/09/25 09:01:23;;;;;;;15.27;6.38;;;;;;;19.30;100.00;100849.59;5030337;28;20489;-66
2021/09/25 09:03:51;;;;;;;12.65;6.10;;;;;;;19.32;100.00;100858.16;5026358;28;20145;-66
2021/09/25 09:06:24;;;;;;;17.23;6.07;;;;;;;19.28;100.00;100851.94;5027805;28;20456;-66
2021/09/25 09:08:52;;;;;;;15.77;6.40;;;;;;;19.34;100.00;100850.34;5031728;28;20037;-66
2021/09/25 09:11:20;;;;;;;18.92;5.88;;;;;;;19.36;100.00;100853.44;5027854;28;20425;-66
2021/09/25 09:13:48;;;;;;;15.02;5.85;;;;;;;19.42;100.00;100845.56;5038855;28;20029;-66
2021/09/25 09:16:14;;;;;;;10.35;6.00;;;;;;;19.47;100.00;100843.16;5022342;28;20494;-66
2021/09/25 09:18:43;;;;;;;13.25;5.90;;;;;;;19.43;100.00;100853.38;5024536;28;20124;-66
2021/09/25 09:21:11;;;;;;;16.75;6.45;;;;;;;19.40;100.00;100847.94;5030853;28;20426;-66
2021/09/25 09:23:48;;;;;;;12.52;6.15;;;;;;;19.42;100.00;100845.56;5030929;28;20037;-66
2021/09/25 09:26:17;;;;;;;17.67;5.88;;;;;;;19.43;100.00;100847.91;5030968;28;20045;-66
2021/09/25 09:28:44;;;;;;;11.23;5.88;;;;;;;19.45;100.00;100845.50;5024045;28;20017;-66
2021/09/25 09:31:11;;;;;;;11.27;6.13;;;;;;;19.45;100.00;100850.97;5030305;28;20080;-66
2021/09/25 09:33:46;;;;;;;14.20;6.15;;;;;;;19.46;100.00;100847.06;5024750;28;20033;-66
2021/09/25 09:36:17;;;;;;;12.27;5.85;;;;;;;19.50;100.00;100853.28;5030836;28;20037;-66
2021/09/25 09:38:57;;;;;;;13.48;6.53;;;;;;;19.51;100.00;100848.59;5021424;28;20112;-66
2021/09/25 09:41:34;;;;;;;13.25;6.25;;;;;;;19.60;100.00;100862.50;5029173;28;20060;-66
2021/09/25 09:44:04;;;;;;;13.35;5.47;;;;;;;19.63;100.00;100859.72;5030652;28;20052;-66
2021/09/25 09:46:42;;;;;;;13.83;6.27;;;;;;;19.61;100.00;100858.59;5022051;28;20053;-66
2021/09/25 09:49:11;;;;;;;13.10;6.25;;;;;;;19.66;100.00;100860.88;5030394;28;20393;-66
2021/09/25 09:51:42;;;;;;;11.07;6.28;;;;;;;19.71;100.00;100860.41;5027174;28;20064;-66
2021/09/25 09:54:19;;;;;;;17.02;6.38;;;;;;;19.67;100.00;100862.41;5026482;28;20108;-66
2021/09/25 09:56:46;;;;;;;14.52;6.70;;;;;;;19.67;100.00;100868.66;5030141;28;20458;-66
2021/09/25 09:59:12;;;;;;;13.30;6.40;;;;;;;19.73;100.00;100869.75;5030564;28;20437;-66
2021/09/25 10:01:39;;;;;;;11.80;5.93;;;;;;;19.74;100.00;100859.59;5025759;28;20568;-70
2021/09/25 10:04:06;;;;;;;10.52;5.32;;;;;;;19.78;100.00;100863.81;5031057;28;20563;-66
2021/09/25 10:06:36;;;;;;;15.32;6.93;;;;;;;19.85;100.00;100862.16;5025223;28;20052;-66
2021/09/25 10:09:20;;;;;;;14.18;6.43;;;;;;;19.81;100.00;100864.94;5029623;28;20029;-66
2021/09/25 10:11:48;;;;;;;13.60;6.47;;;;;;;19.88;100.00;100867.56;5028303;28;20045;-66
2021/09/25 10:14:17;;;;;;;13.45;6.32;;;;;;;20.01;100.00;100876.00;5030189;28;20088;-66
2021/09/25 10:16:43;;;;;;;15.25;6.63;;;;;;;20.09;100.00;100875.47;5016573;28;20137;-66
2021/09/25 10:19:10;;;;;;;12.25;5.80;;;;;;;20.12;100.00;100882.88;5025521;28;20026;-66
2021/09/25 10:21:36;;;;;;;14.55;6.53;;;;;;;20.20;100.00;100880.81;5021993;28;20057;-65
2021/09/25 10:24:07;;;;;;;14.75;6.63;;;;;;;20.27;100.00;100876.00;5021342;28;20033;-66
2021/09/25 10:26:34;;;;;;;14.23;6.82;;;;;;;20.29;100.00;100876.38;5022293;28;20512;-66
2021/09/25 10:29:03;;;;;;;16.17;6.75;;;;;;;20.27;100.00;100883.44;5029542;28;20441;-65
2021/09/25 10:31:28;;;;;;;15.20;6.93;;;;;;;20.27;100.00;100877.97;5025979;28;20089;-66
2021/09/25 10:34:18;;;;;;;14.95;6.88;;;;;;;20.30;100.00;100888.88;5026969;28;20507;-66
2021/09/25 10:36:55;;;;;;;14.35;6.35;;;;;;;20.37;100.00;100877.81;5013794;28;20044;-66
2021/09/25 10:39:36;;;;;;;10.35;5.88;;;;;;;20.46;100.00;100883.50;5024264;28;20033;-66
2021/09/25 10:42:10;;;;;;;14.80;6.03;;;;;;;20.55;100.00;100880.25;5029291;28;20035;-65
2021/09/25 10:44:48;;;;;;;11.63;6.47;;;;;;;20.66;100.00;100878.88;5025763;28;20037;-66
2021/09/25 10:47:19;;;;;;;15.35;6.38;;;;;;;20.72;100.00;100884.66;5027897;28;20052;-66
2021/09/25 10:49:49;;;;;;;14.90;6.28;;;;;;;20.79;100.00;100889.22;5017505;28;20053;-66
2021/09/25 10:52:18;;;;;;;11.65;6.35;;;;;;;20.80;100.00;100898.97;5026815;28;20041;-66
2021/09/25 10:54:44;;;;;;;10.90;5.47;;;;;;;20.82;100.00;100891.13;5033606;28;20065;-66
2021/09/25 10:57:18;;;;;;;9.70;5.72;;;;;;;20.73;100.00;100894.38;5033465;28;20033;-66
2021/09/25 11:00:17;;;;;;;10.43;5.95;;;;;;;20.71;100.00;100894.06;5032547;28;20120;-66
2021/09/25 11:02:43;;;;;;;9.30;5.20;;;;;;;20.72;100.00;100898.34;5020591;28;20529;-66
2021/09/25 11:05:14;;;;;;;11.30;5.85;;;;;;;20.73;100.00;100897.13;5033664;28;20037;-66
2021/09/25 11:07:42;;;;;;;6.93;4.65;;;;;;;20.70;100.00;100903.47;5030181;28;20376;-66
2021/09/25 11:10:08;;;;;;;12.20;5.05;;;;;;;20.75;100.00;100908.44;5023865;28;20383;-66